sensor_id;sensor_type;location;lat;lon;timestamp;pressure;altitude;pressure_sealevel;temperature;humidity
46087;BME280;31824;49.648;8.640;2023-01-19T00:00:35;99263.06;;;-1.04;100.00
46087;BME280;31824;49.648;8.640;2023-01-19T00:03:37;99277.59;;;-1.12;100.00
46087;BME280;31824;49.648;8.640;2023-01-19T00:06:39;99277.22;;;-1.08;100.00
46087;BME280;31824;49.648;8.640;2023-01-19T00:09:42;99273.56;;;-1.10;100.00
46087;BME280;31824;49.648;8.640;2023-01-19T00:12:44;99276.31;;;-1.01;100.00
46087;BME280;31824;49.648;8.640;2023-01-19T00:15:46;99271.34;;;-1.07;100.00
46087;BME280;31824;49.648;8.640;2023-01-19T00:18:49;99277.22;;;-1.08;100.00
46087;BME280;31824;49.648;8.640;2023-01-19T00:21:51;99272.97;;;-1.14;100.00
46087;BME280;31824;49.648;8.640;2023-01-19T00:24:54;99278.69;;;-1.17;100.00
46087;BME280;31824;49.648;8.640;2023-01-19T00:27:56;99281.47;;;-1.08;100.00
46087;BME280;31824;49.648;8.640;2023-01-19T00:30:59;99283.16;;;-1.09;100.00
46087;BME280;31824;49.648;8.640;2023-01-19T00:34:01;99282.94;;;-1.10;100.00
46087;BME280;31824;49.648;8.640;2023-01-19T00:37:03;99291.56;;;-1.17;100.00
46087;BME280;31824;49.648;8.640;2023-01-19T00:40:09;99291.56;;;-1.17;100.00
46087;BME280;31824;49.648;8.640;2023-01-19T00:43:11;99291.38;;;-1.19;100.00
46087;BME280;31824;49.648;8.640;2023-01-19T00:46:12;99301.19;;;-1.02;100.00
46087;BME280;31824;49.648;8.640;2023-01-19T00:49:14;99301.91;;;-1.03;100.00
46087;BME280;31824;49.648;8.640;2023-01-19T00:52:16;99298.97;;;-0.91;100.00
46087;BME280;31824;49.648;8.640;2023-01-19T00:55:19;99310.22;;;-0.98;100.00
46087;BME280;31824;49.648;8.640;2023-01-19T00:58:21;99304.69;;;-1.01;100.00
46087;BME280;31824;49.648;8.640;2023-01-19T01:01:23;99299.94;;;-0.91;100.00
46087;BME280;31824;49.648;8.640;2023-01-19T01:04:44;99314.13;;;-0.80;100.00
46087;BME280;31824;49.648;8.640;2023-01-19T01:07:47;99314.13;;;-0.80;100.00
46087;BME280;31824;49.648;8.640;2023-01-19T01:10:51;99312.63;;;-0.78;100.00
46087;BME280;31824;49.648;8.640;2023-01-19T01:13:53;99314.69;;;-0.75;100.00
46087;BME280;31824;49.648;8.640;2023-01-19T01:16:55;99312.31;;;-0.66;100.00
46087;BME280;31824;49.648;8.640;2023-01-19T01:19:58;99323.56;;;-0.52;100.00
46087;BME280;31824;49.648;8.640;2023-01-19T01:23:00;99325.78;;;-0.47;100.00
46087;BME280;31824;49.648;8.640;2023-01-19T01:26:04;99321.69;;;-0.38;100.00
46087;BME280;31824;49.648;8.640;2023-01-19T01:29:06;99331.88;;;-0.32;100.00
46087;BME280;31824;49.648;8.640;2023-01-19T01:32:08;99322.44;;;-0.32;100.00
46087;BME280;31824;49.648;8.640;2023-01-19T01:35:12;99327.81;;;-0.38;100.00
46087;BME280;31824;49.648;8.640;2023-01-19T01:38:15;99340.72;;;-0.45;100.00
46087;BME280;31824;49.648;8.640;2023-01-19T01:41:18;99323.56;;;-0.44;100.00
46087;BME280;31824;49.648;8.640;2023-01-19T01:44:44;99330.56;;;-0.36;100.00
46087;BME280;31824;49.648;8.640;2023-01-19T01:47:50;99339.06;;;-0.30;100.00
46087;BME280;31824;49.648;8.640;2023-01-19T01:50:57;99339.97;;;-0.29;100.00
46087;BME280;31824;49.648;8.640;2023-01-19T01:54:29;99335.91;;;-0.27;100.00
46087;BME280;31824;49.648;8.640;2023-01-19T01:57:34;99332.59;;;-0.26;100.00
46087;BME280;31824;49.648;8.640;2023-01-19T02:00:37;99331.88;;;-0.32;100.00
46087;BME280;31824;49.648;8.640;2023-01-19T02:03:59;99331.09;;;-0.31;100.00
46087;BME280;31824;49.648;8.640;2023-01-19T02:07:00;99333.31;;;-0.35;100.00
46087;BME280;31824;49.648;8.640;2023-01-19T02:10:21;99333.16;;;-0.43;100.00
46087;BME280;31824;49.648;8.640;2023-01-19T02:13:43;99334.78;;;-0.51;100.00
46087;BME280;31824;49.648;8.640;2023-01-19T02:16:47;99336.06;;;-0.55;100.00
46087;BME280;31824;49.648;8.640;2023-01-19T02:19:49;99332.22;;;-0.44;100.00
46087;BME280;31824;49.648;8.640;2023-01-19T02:22:51;99338.31;;;-0.36;100.00
46087;BME280;31824;49.648;8.640;2023-01-19T02:25:54;99332.75;;;-0.46;100.00
46087;BME280;31824;49.648;8.640;2023-01-19T02:28:59;99329.63;;;-0.51;100.00
46087;BME280;31824;49.648;8.640;2023-01-19T02:32:03;99325.22;;;-0.45;100.00
46087;BME280;31824;49.648;8.640;2023-01-19T02:35:06;99329.84;;;-0.35;100.00
46087;BME280;31824;49.648;8.640;2023-01-19T02:38:09;99325.75;;;-0.33;100.00
46087;BME280;31824;49.648;8.640;2023-01-19T02:41:15;99327.41;;;-0.26;100.00
46087;BME280;31824;49.648;8.640;2023-01-19T02:44:19;99321.72;;;-0.24;100.00
46087;BME280;31824;49.648;8.640;2023-01-19T02:47:23;99323.56;;;-0.30;100.00
46087;BME280;31824;49.648;8.640;2023-01-19T02:50:36;99323.75;;;-0.21;100.00
46087;BME280;31824;49.648;8.640;2023-01-19T02:54:01;99327.78;;;-0.23;100.00
46087;BME280;31824;49.648;8.640;2023-01-19T02:57:18;99325.03;;;-0.18;100.00
46087;BME280;31824;49.648;8.640;2023-01-19T03:00:29;99322.06;;;-0.21;100.00
46087;BME280;31824;49.648;8.640;2023-01-19T03:03:44;99328.53;;;-0.17;100.00
46087;BME280;31824;49.648;8.640;2023-01-19T03:06:54;99325.56;;;-0.13;100.00
46087;BME280;31824;49.648;8.640;2023-01-19T03:10:06;99328.69;;;-0.08;100.00
46087;BME280;31824;49.648;8.640;2023-01-19T03:13:13;99329.81;;;-0.06;100.00
46087;BME280;31824;49.648;8.640;2023-01-19T03:16:19;99332.03;;;-0.09;100.00
46087;BME280;31824;49.648;8.640;2023-01-19T03:19:26;99327.41;;;-0.05;100.00
46087;BME280;31824;49.648;8.640;2023-01-19T03:22:29;99337.38;;;-0.01;100.00
46087;BME280;31824;49.648;8.640;2023-01-19T03:25:34;99343.06;;;-0.03;100.00
46087;BME280;31824;49.648;8.640;2023-01-19T03:28:40;99337.38;;;-0.08;100.00
46087;BME280;31824;49.648;8.640;2023-01-19T03:31:43;99342.16;;;-0.04;100.00
46087;BME280;31824;49.648;8.640;2023-01-19T03:34:47;99348.63;;;0.00;100.00
46087;BME280;31824;49.648;8.640;2023-01-19T03:37:54;99356.16;;;-0.02;100.00
46087;BME280;31824;49.648;8.640;2023-01-19T03:40:59;99353.22;;;-0.05;100.00
46087;BME280;31824;49.648;8.640;2023-01-19T03:44:04;99353.03;;;-0.06;100.00
46087;BME280;31824;49.648;8.640;2023-01-19T03:47:09;99351.75;;;-0.03;100.00
46087;BME280;31824;49.648;8.640;2023-01-19T03:50:15;99361.53;;;-0.07;100.00
46087;BME280;31824;49.648;8.640;2023-01-19T03:53:21;99359.13;;;-0.13;100.00
46087;BME280;31824;49.648;8.640;2023-01-19T03:56:26;99356.91;;;-0.10;100.00
46087;BME280;31824;49.648;8.640;2023-01-19T03:59:29;99359.31;;;-0.11;100.00
46087;BME280;31824;49.648;8.640;2023-01-19T04:02:30;99363.75;;;-0.10;100.00
46087;BME280;31824;49.648;8.640;2023-01-19T04:05:32;99352.50;;;-0.18;100.00
46087;BME280;31824;49.648;8.640;2023-01-19T04:08:34;99358.19;;;-0.21;100.00
46087;BME280;31824;49.648;8.640;2023-01-19T04:11:36;99354.72;;;-0.21;100.00
46087;BME280;31824;49.648;8.640;2023-01-19T04:14:39;99358.03;;;-0.15;100.00
46087;BME280;31824;49.648;8.640;2023-01-19T04:17:41;99355.09;;;-0.11;100.00
46087;BME280;31824;49.648;8.640;2023-01-19T04:20:43;99356.75;;;-0.19;100.00
46087;BME280;31824;49.648;8.640;2023-01-19T04:23:45;99355.63;;;-0.21;100.00
46087;BME280;31824;49.648;8.640;2023-01-19T04:26:46;99352.31;;;-0.20;100.00
46087;BME280;31824;49.648;8.640;2023-01-19T04:29:49;99349.00;;;-0.26;100.00
46087;BME280;31824;49.648;8.640;2023-01-19T04:32:51;99346.81;;;-0.30;100.00
46087;BME280;31824;49.648;8.640;2023-01-19T04:35:54;99343.09;;;-0.39;100.00
46087;BME280;31824;49.648;8.640;2023-01-19T04:38:56;99347.50;;;-0.45;100.00
46087;BME280;31824;49.648;8.640;2023-01-19T04:41:58;99346.41;;;-0.40;100.00
46087;BME280;31824;49.648;8.640;2023-01-19T04:45:03;99345.09;;;-0.44;100.00
46087;BME280;31824;49.648;8.640;2023-01-19T04:48:05;99343.06;;;-0.46;100.00
46087;BME280;31824;49.648;8.640;2023-01-19T04:51:07;99353.03;;;-0.42;100.00
46087;BME280;31824;49.648;8.640;2023-01-19T04:54:09;99351.03;;;-0.45;100.00
46087;BME280;31824;49.648;8.640;2023-01-19T04:57:11;99349.53;;;-0.50;100.00
46087;BME280;31824;49.648;8.640;2023-01-19T05:00:15;99358.00;;;-0.44;100.00
46087;BME280;31824;49.648;8.640;2023-01-19T05:03:19;99366.13;;;-0.48;100.00
46087;BME280;31824;49.648;8.640;2023-01-19T05:06:21;99363.16;;;-0.58;100.00
46087;BME280;31824;49.648;8.640;2023-01-19T05:09:23;99367.03;;;-0.62;100.00
46087;BME280;31824;49.648;8.640;2023-01-19T05:12:25;99362.41;;;-0.64;100.00
46087;BME280;31824;49.648;8.640;2023-01-19T05:15:28;99359.81;;;-0.64;100.00
46087;BME280;31824;49.648;8.640;2023-01-19T05:18:30;99368.69;;;-0.55;100.00
46087;BME280;31824;49.648;8.640;2023-01-19T05:21:37;99361.69;;;-0.56;100.00
46087;BME280;31824;49.648;8.640;2023-01-19T05:24:39;99360.41;;;-0.60;100.00
46087;BME280;31824;49.648;8.640;2023-01-19T05:27:40;99365.38;;;-0.54;100.00
46087;BME280;31824;49.648;8.640;2023-01-19T05:30:43;99369.78;;;-0.60;100.00
46087;BME280;31824;49.648;8.640;2023-01-19T05:33:45;99379.00;;;-0.55;100.00
46087;BME280;31824;49.648;8.640;2023-01-19T05:36:48;99377.91;;;-0.50;100.00
46087;BME280;31824;49.648;8.640;2023-01-19T05:39:51;99375.16;;;-0.44;100.00
46087;BME280;31824;49.648;8.640;2023-01-19T05:42:53;99380.88;;;-0.47;100.00
46087;BME280;31824;49.648;8.640;2023-01-19T05:45:56;99377.88;;;-0.57;100.00
46087;BME280;31824;49.648;8.640;2023-01-19T05:48:58;99383.78;;;-0.65;100.00
46087;BME280;31824;49.648;8.640;2023-01-19T05:52:02;99378.59;;;-0.65;100.00
46087;BME280;31824;49.648;8.640;2023-01-19T05:55:05;99378.59;;;-0.73;100.00
46087;BME280;31824;49.648;8.640;2023-01-19T05:58:07;99377.50;;;-0.68;100.00
46087;BME280;31824;49.648;8.640;2023-01-19T06:01:10;99370.69;;;-0.67;100.00
46087;BME280;31824;49.648;8.640;2023-01-19T06:04:12;99372.91;;;-0.70;100.00
46087;BME280;31824;49.648;8.640;2023-01-19T06:07:14;99368.69;;;-0.55;100.00
46087;BME280;31824;49.648;8.640;2023-01-19T06:10:16;99380.09;;;-0.53;100.00
46087;BME280;31824;49.648;8.640;2023-01-19T06:13:18;99388.06;;;-0.44;100.00
46087;BME280;31824;49.648;8.640;2023-01-19T06:16:21;99377.75;;;-0.52;100.00
46087;BME280;31824;49.648;8.640;2023-01-19T06:19:23;99388.78;;;-0.53;100.00
46087;BME280;31824;49.648;8.640;2023-01-19T06:22:24;99398.00;;;-0.47;100.00
46087;BME280;31824;49.648;8.640;2023-01-19T06:25:26;99404.84;;;-0.41;100.00
46087;BME280;31824;49.648;8.640;2023-01-19T06:28:28;99412.03;;;-0.31;100.00
46087;BME280;31824;49.648;8.640;2023-01-19T06:31:31;99410.00;;;-0.26;100.00
46087;BME280;31824;49.648;8.640;2023-01-19T06:34:33;99404.13;;;-0.25;100.00
46087;BME280;31824;49.648;8.640;2023-01-19T06:37:35;99414.44;;;-0.25;100.00
46087;BME280;31824;49.648;8.640;2023-01-19T06:40:37;99419.78;;;-0.24;100.00
46087;BME280;31824;49.648;8.640;2023-01-19T06:43:39;99420.91;;;-0.14;100.00
46087;BME280;31824;49.648;8.640;2023-01-19T06:46:42;99414.84;;;-0.15;100.00
46087;BME280;31824;49.648;8.640;2023-01-19T06:49:44;99431.59;;;-0.11;100.00
46087;BME280;31824;49.648;8.640;2023-01-19T06:52:48;99427.72;;;-0.08;100.00
46087;BME280;31824;49.648;8.640;2023-01-19T06:55:50;99426.59;;;-0.10;100.00
46087;BME280;31824;49.648;8.640;2023-01-19T06:58:52;99424.03;;;-0.10;100.00
46087;BME280;31824;49.648;8.640;2023-01-19T07:01:55;99428.84;;;-0.13;100.00
46087;BME280;31824;49.648;8.640;2023-01-19T07:04:58;99432.53;;;-0.11;100.00
46087;BME280;31824;49.648;8.640;2023-01-19T07:07:59;99432.31;;;-0.12;100.00
46087;BME280;31824;49.648;8.640;2023-01-19T07:11:02;99432.53;;;-0.11;100.00
46087;BME280;31824;49.648;8.640;2023-01-19T07:14:28;99438.78;;;-0.09;100.00
46087;BME280;31824;49.648;8.640;2023-01-19T07:17:35;99432.91;;;-0.08;100.00
46087;BME280;31824;49.648;8.640;2023-01-19T07:20:37;99438.44;;;-0.05;100.00
46087;BME280;31824;49.648;8.640;2023-01-19T07:23:39;99441.19;;;-0.03;100.00
46087;BME280;31824;49.648;8.640;2023-01-19T07:26:40;99450.06;;;-0.01;100.00
46087;BME280;31824;49.648;8.640;2023-01-19T07:29:42;99450.41;;;0.02;100.00
46087;BME280;31824;49.648;8.640;2023-01-19T07:32:45;99456.50;;;0.03;100.00
46087;BME280;31824;49.648;8.640;2023-01-19T07:35:48;99466.09;;;0.04;100.00
46087;BME280;31824;49.648;8.640;2023-01-19T07:38:50;99473.47;;;0.01;100.00
46087;BME280;31824;49.648;8.640;2023-01-19T07:41:52;99475.69;;;0.05;100.00
46087;BME280;31824;49.648;8.640;2023-01-19T07:44:56;99484.53;;;0.07;100.00
46087;BME280;31824;49.648;8.640;2023-01-19T07:48:00;99482.91;;;0.07;100.00
46087;BME280;31824;49.648;8.640;2023-01-19T07:51:03;99486.19;;;0.06;100.00
46087;BME280;31824;49.648;8.640;2023-01-19T07:54:06;99493.78;;;0.05;100.00
46087;BME280;31824;49.648;8.640;2023-01-19T07:57:08;99497.81;;;0.03;100.00
46087;BME280;31824;49.648;8.640;2023-01-19T08:00:11;99495.25;;;0.10;100.00
46087;BME280;31824;49.648;8.640;2023-01-19T08:03:16;99494.84;;;0.07;100.00
46087;BME280;31824;49.648;8.640;2023-01-19T08:06:20;99503.19;;;0.11;100.00
46087;BME280;31824;49.648;8.640;2023-01-19T08:09:22;99493.41;;;0.16;100.00
46087;BME280;31824;49.648;8.640;2023-01-19T08:12:24;99496.16;;;0.10;100.00
46087;BME280;31824;49.648;8.640;2023-01-19T08:15:26;99497.28;;;0.20;100.00
46087;BME280;31824;49.648;8.640;2023-01-19T08:18:29;99497.66;;;0.23;100.00
46087;BME280;31824;49.648;8.640;2023-01-19T08:21:31;99490.47;;;0.13;100.00
46087;BME280;31824;49.648;8.640;2023-01-19T08:24:33;99488.06;;;0.07;100.00
46087;BME280;31824;49.648;8.640;2023-01-19T08:27:35;99481.94;;;0.07;100.00
46087;BME280;31824;49.648;8.640;2023-01-19T08:30:37;99494.53;;;0.18;100.00
46087;BME280;31824;49.648;8.640;2023-01-19T08:33:40;99492.13;;;0.27;100.00
46087;BME280;31824;49.648;8.640;2023-01-19T08:36:43;99494.13;;;0.37;100.00
46087;BME280;31824;49.648;8.640;2023-01-19T08:39:45;99498.41;;;0.36;100.00
46087;BME280;31824;49.648;8.640;2023-01-19T08:42:47;99497.84;;;0.46;100.00
46087;BME280;31824;49.648;8.640;2023-01-19T08:45:50;99491.19;;;0.41;100.00
46087;BME280;31824;49.648;8.640;2023-01-19T08:48:53;99488.97;;;0.37;100.00
46087;BME280;31824;49.648;8.640;2023-01-19T08:51:55;99495.63;;;0.42;100.00
46087;BME280;31824;49.648;8.640;2023-01-19T08:54:57;99497.28;;;0.41;100.00
46087;BME280;31824;49.648;8.640;2023-01-19T08:57:58;99493.41;;;0.45;100.00
46087;BME280;31824;49.648;8.640;2023-01-19T09:01:01;99491.56;;;0.51;100.00
46087;BME280;31824;49.648;8.640;2023-01-19T09:04:06;99496.72;;;0.51;100.00
46087;BME280;31824;49.648;8.640;2023-01-19T09:07:08;99503.38;;;0.63;100.00
46087;BME280;31824;49.648;8.640;2023-01-19T09:10:10;99500.78;;;0.63;100.00
46087;BME280;31824;49.648;8.640;2023-01-19T09:13:13;99500.22;;;0.66;100.00
46087;BME280;31824;49.648;8.640;2023-01-19T09:16:15;99494.69;;;0.56;100.00
46087;BME280;31824;49.648;8.640;2023-01-19T09:19:18;99496.91;;;0.60;100.00
46087;BME280;31824;49.648;8.640;2023-01-19T09:22:20;99502.81;;;0.52;100.00
46087;BME280;31824;49.648;8.640;2023-01-19T09:25:22;99492.88;;;0.55;100.00
46087;BME280;31824;49.648;8.640;2023-01-19T09:28:24;99495.28;;;0.53;100.00
46087;BME280;31824;49.648;8.640;2023-01-19T09:31:26;99492.66;;;0.46;100.00
46087;BME280;31824;49.648;8.640;2023-01-19T09:34:30;99488.59;;;0.41;100.00
46087;BME280;31824;49.648;8.640;2023-01-19T09:37:32;99499.13;;;0.35;100.00
46087;BME280;31824;49.648;8.640;2023-01-19T09:40:34;99492.13;;;0.34;100.00
46087;BME280;31824;49.648;8.640;2023-01-19T09:43:39;99493.41;;;0.45;100.00
46087;BME280;31824;49.648;8.640;2023-01-19T09:46:41;99489.91;;;0.59;100.00
46087;BME280;31824;49.648;8.640;2023-01-19T09:49:49;99494.69;;;0.63;100.00
46087;BME280;31824;49.648;8.640;2023-01-19T09:53:15;99494.69;;;0.70;100.00
46087;BME280;31824;49.648;8.640;2023-01-19T09:56:21;99494.13;;;0.87;100.00
46087;BME280;31824;49.648;8.640;2023-01-19T09:59:25;99502.75;;;1.09;100.00
46087;BME280;31824;49.648;8.640;2023-01-19T10:02:34;99498.66;;;1.11;100.00
46087;BME280;31824;49.648;8.640;2023-01-19T10:05:41;99499.91;;;1.22;100.00
46087;BME280;31824;49.648;8.640;2023-01-19T10:08:50;99502.84;;;1.32;100.00
46087;BME280;31824;49.648;8.640;2023-01-19T10:11:59;99499.53;;;1.33;100.00
46087;BME280;31824;49.648;8.640;2023-01-19T10:15:14;99509.78;;;1.48;100.00
46087;BME280;31824;49.648;8.640;2023-01-19T10:18:21;99505.75;;;1.50;100.00
46087;BME280;31824;49.648;8.640;2023-01-19T10:21:30;99505.00;;;1.51;100.00
46087;BME280;31824;49.648;8.640;2023-01-19T10:24:37;99507.31;;;1.64;100.00
46087;BME280;31824;49.648;8.640;2023-01-19T10:27:40;99502.31;;;1.65;100.00
46087;BME280;31824;49.648;8.640;2023-01-19T10:30:44;99506.47;;;1.87;100.00
46087;BME280;31824;49.648;8.640;2023-01-19T10:33:48;99514.94;;;1.93;100.00
46087;BME280;31824;49.648;8.640;2023-01-19T10:36:56;99515.47;;;1.97;100.00
46087;BME280;31824;49.648;8.640;2023-01-19T10:40:05;99503.75;;;1.78;100.00
46087;BME280;31824;49.648;8.640;2023-01-19T10:43:44;99515.56;;;1.83;100.00
46087;BME280;31824;49.648;8.640;2023-01-19T10:46:47;99518.22;;;1.68;100.00
46087;BME280;31824;49.648;8.640;2023-01-19T10:49:50;99510.00;;;1.42;100.00
46087;BME280;31824;49.648;8.640;2023-01-19T10:52:55;99507.78;;;1.45;100.00
46087;BME280;31824;49.648;8.640;2023-01-19T10:56:12;99513.50;;;1.50;100.00
46087;BME280;31824;49.648;8.640;2023-01-19T10:59:30;99510.19;;;1.51;100.00
46087;BME280;31824;49.648;8.640;2023-01-19T11:02:32;99508.72;;;1.39;100.00
46087;BME280;31824;49.648;8.640;2023-01-19T11:05:34;99508.53;;;1.44;100.00
46087;BME280;31824;49.648;8.640;2023-01-19T11:08:37;99505.00;;;1.51;100.00
46087;BME280;31824;49.648;8.640;2023-01-19T11:11:45;99512.38;;;1.48;100.00
46087;BME280;31824;49.648;8.640;2023-01-19T11:14:48;99502.41;;;1.51;100.00
46087;BME280;31824;49.648;8.640;2023-01-19T11:17:51;99502.72;;;1.61;100.00
46087;BME280;31824;49.648;8.640;2023-01-19T11:20:55;99505.00;;;1.51;100.00
46087;BME280;31824;49.648;8.640;2023-01-19T11:24:01;99511.59;;;1.56;100.00
46087;BME280;31824;49.648;8.640;2023-01-19T11:27:05;99508.53;;;1.44;100.00
46087;BME280;31824;49.648;8.640;2023-01-19T11:30:17;99508.28;;;1.57;100.00
46087;BME280;31824;49.648;8.640;2023-01-19T11:33:25;99512.56;;;1.57;100.00
46087;BME280;31824;49.648;8.640;2023-01-19T11:36:28;99519.19;;;1.55;100.00
46087;BME280;31824;49.648;8.640;2023-01-19T11:39:44;99505.06;;;1.74;100.00
46087;BME280;31824;49.648;8.640;2023-01-19T11:42:47;99499.09;;;1.82;100.00
46087;BME280;31824;49.648;8.640;2023-01-19T11:45:49;99498.16;;;1.89;100.00
46087;BME280;31824;49.648;8.640;2023-01-19T11:48:53;99503.28;;;1.96;100.00
46087;BME280;31824;49.648;8.640;2023-01-19T11:52:04;99496.25;;;1.95;100.00
46087;BME280;31824;49.648;8.640;2023-01-19T11:55:15;99490.00;;;1.86;100.00
46087;BME280;31824;49.648;8.640;2023-01-19T11:58:18;99493.13;;;1.91;100.00
46087;BME280;31824;49.648;8.640;2023-01-19T12:01:22;99489.25;;;1.87;100.00
46087;BME280;31824;49.648;8.640;2023-01-19T12:04:29;99493.34;;;1.85;100.00
46087;BME280;31824;49.648;8.640;2023-01-19T12:07:33;99492.59;;;1.86;100.00
46087;BME280;31824;49.648;8.640;2023-01-19T12:10:38;99499.94;;;1.97;100.00
46087;BME280;31824;49.648;8.640;2023-01-19T12:13:44;99495.72;;;1.91;100.00
46087;BME280;31824;49.648;8.640;2023-01-19T12:16:49;99492.34;;;1.99;100.00
46087;BME280;31824;49.648;8.640;2023-01-19T12:19:57;99493.66;;;1.95;100.00
46087;BME280;31824;49.648;8.640;2023-01-19T12:23:10;99489.59;;;1.97;100.00
46087;BME280;31824;49.648;8.640;2023-01-19T12:26:24;99484.97;;;1.95;100.00
46087;BME280;31824;49.648;8.640;2023-01-19T12:29:30;99483.28;;;1.95;100.00
46087;BME280;31824;49.648;8.640;2023-01-19T12:32:34;99485.03;;;1.80;100.00
46087;BME280;31824;49.648;8.640;2023-01-19T12:35:54;99480.44;;;1.78;100.00
46087;BME280;31824;49.648;8.640;2023-01-19T12:39:00;99483.38;;;1.81;100.00
46087;BME280;31824;49.648;8.640;2023-01-19T12:42:10;99477.81;;;1.85;100.00
46087;BME280;31824;49.648;8.640;2023-01-19T12:45:15;99489.38;;;1.96;100.00
46087;BME280;31824;49.648;8.640;2023-01-19T12:48:23;99479.63;;;1.93;100.00
46087;BME280;31824;49.648;8.640;2023-01-19T12:51:25;99491.22;;;1.97;100.00
46087;BME280;31824;49.648;8.640;2023-01-19T12:54:28;99483.34;;;1.88;100.00
46087;BME280;31824;49.648;8.640;2023-01-19T12:57:36;99480.97;;;1.82;100.00
46087;BME280;31824;49.648;8.640;2023-01-19T13:00:40;99480.09;;;1.75;100.00
46087;BME280;31824;49.648;8.640;2023-01-19T13:03:56;99487.91;;;1.67;100.00
46087;BME280;31824;49.648;8.640;2023-01-19T13:07:06;99480.13;;;1.67;100.00
46087;BME280;31824;49.648;8.640;2023-01-19T13:17:42;99475.75;;;1.59;100.00
46087;BME280;31824;49.648;8.640;2023-01-19T13:20:50;99490.34;;;1.59;100.00
46087;BME280;31824;49.648;8.640;2023-01-19T13:23:56;99494.56;;;1.65;100.00
46087;BME280;31824;49.648;8.640;2023-01-19T13:26:58;99483.28;;;1.65;100.00
46087;BME280;31824;49.648;8.640;2023-01-19T13:30:10;99492.41;;;1.54;100.00
46087;BME280;31824;49.648;8.640;2023-01-19T13:33:18;99482.91;;;1.62;100.00
46087;BME280;31824;49.648;8.640;2023-01-19T13:36:23;99488.47;;;1.65;100.00
46087;BME280;31824;49.648;8.640;2023-01-19T13:39:29;99491.63;;;1.62;100.00
46087;BME280;31824;49.648;8.640;2023-01-19T13:42:37;99493.09;;;1.67;100.00
46087;BME280;31824;49.648;8.640;2023-01-19T13:45:40;99494.22;;;1.62;100.00
46087;BME280;31824;49.648;8.640;2023-01-19T13:48:54;99501.09;;;1.55;100.00
46087;BME280;31824;49.648;8.640;2023-01-19T13:52:14;99495.69;;;1.67;100.00
46087;BME280;31824;49.648;8.640;2023-01-19T13:55:17;99500.84;;;1.67;100.00
46087;BME280;31824;49.648;8.640;2023-01-19T13:58:21;99508.19;;;1.79;100.00
46087;BME280;31824;49.648;8.640;2023-01-19T14:01:23;99508.34;;;1.80;100.00
46087;BME280;31824;49.648;8.640;2023-01-19T14:04:32;99511.28;;;1.91;100.00
46087;BME280;31824;49.648;8.640;2023-01-19T14:07:34;99514.06;;;1.85;100.00
46087;BME280;31824;49.648;8.640;2023-01-19T14:10:37;99520.09;;;2.00;100.00
46087;BME280;31824;49.648;8.640;2023-01-19T14:13:42;99510.25;;;2.05;100.00
46087;BME280;31824;49.648;8.640;2023-01-19T14:16:45;99512.59;;;2.10;100.00
46087;BME280;31824;49.648;8.640;2023-01-19T14:19:49;99516.81;;;2.17;100.00
46087;BME280;31824;49.648;8.640;2023-01-19T14:22:51;99513.34;;;2.09;100.00
46087;BME280;31824;49.648;8.640;2023-01-19T14:25:53;99518.91;;;2.12;100.00
46087;BME280;31824;49.648;8.640;2023-01-19T14:28:55;99515.44;;;2.05;100.00
46087;BME280;31824;49.648;8.640;2023-01-19T14:32:11;99513.41;;;2.02;100.00
46087;BME280;31824;49.648;8.640;2023-01-19T14:35:22;99509.50;;;2.06;100.00
46087;BME280;31824;49.648;8.640;2023-01-19T14:38:24;99512.44;;;2.09;100.00
46087;BME280;31824;49.648;8.640;2023-01-19T14:41:32;99515.78;;;2.08;100.00
46087;BME280;31824;49.648;8.640;2023-01-19T14:44:37;99522.06;;;2.10;100.00
46087;BME280;31824;49.648;8.640;2023-01-19T14:47:41;99522.28;;;2.04;100.00
46087;BME280;31824;49.648;8.640;2023-01-19T14:50:46;99518.97;;;1.98;100.00
46087;BME280;31824;49.648;8.640;2023-01-19T14:54:03;99528.78;;;2.00;100.00
46087;BME280;31824;49.648;8.640;2023-01-19T14:57:09;99525.28;;;2.00;100.00
46087;BME280;31824;49.648;8.640;2023-01-19T15:00:16;99530.47;;;2.00;100.00
46087;BME280;31824;49.648;8.640;2023-01-19T15:03:18;99532.16;;;1.92;100.00
46087;BME280;31824;49.648;8.640;2023-01-19T15:06:23;99528.09;;;1.87;100.00
46087;BME280;31824;49.648;8.640;2023-01-19T15:09:25;99532.94;;;1.84;100.00
46087;BME280;31824;49.648;8.640;2023-01-19T15:12:27;99532.56;;;1.81;100.00
46087;BME280;31824;49.648;8.640;2023-01-19T15:15:33;99530.91;;;1.81;100.00
46087;BME280;31824;49.648;8.640;2023-01-19T15:18:36;99538.50;;;1.80;100.00
46087;BME280;31824;49.648;8.640;2023-01-19T15:21:40;99534.06;;;1.79;100.00
46087;BME280;31824;49.648;8.640;2023-01-19T15:24:43;99533.56;;;1.74;100.00
46087;BME280;31824;49.648;8.640;2023-01-19T15:27:45;99533.72;;;1.76;100.00
46087;BME280;31824;49.648;8.640;2023-01-19T15:30:47;99539.28;;;1.72;100.00
46087;BME280;31824;49.648;8.640;2023-01-19T15:33:49;99538.91;;;1.68;100.00
46087;BME280;31824;49.648;8.640;2023-01-19T15:36:53;99544.88;;;1.67;100.00
46087;BME280;31824;49.648;8.640;2023-01-19T15:39:54;99554.50;;;1.61;100.00
46087;BME280;31824;49.648;8.640;2023-01-19T15:42:56;99548.78;;;1.49;100.00
46087;BME280;31824;49.648;8.640;2023-01-19T15:45:59;99550.13;;;1.46;100.00
46087;BME280;31824;49.648;8.640;2023-01-19T15:49:02;99562.38;;;1.32;100.00
46087;BME280;31824;49.648;8.640;2023-01-19T15:52:07;99561.44;;;1.25;100.00
46087;BME280;31824;49.648;8.640;2023-01-19T15:55:09;99559.63;;;1.16;100.00
46087;BME280;31824;49.648;8.640;2023-01-19T15:58:12;99567.78;;;1.05;100.00
46087;BME280;31824;49.648;8.640;2023-01-19T16:01:16;99564.09;;;1.10;100.00
46087;BME280;31824;49.648;8.640;2023-01-19T16:04:19;99570.19;;;1.04;100.00
46087;BME280;31824;49.648;8.640;2023-01-19T16:07:22;99571.28;;;0.98;100.00
46087;BME280;31824;49.648;8.640;2023-01-19T16:10:24;99567.06;;;0.92;100.00
46087;BME280;31824;49.648;8.640;2023-01-19T16:13:26;99577.03;;;0.96;100.00
46087;BME280;31824;49.648;8.640;2023-01-19T16:16:30;99580.16;;;0.93;100.00
46087;BME280;31824;49.648;8.640;2023-01-19T16:19:32;99580.00;;;0.84;100.00